»·PEaware :: N46299 KSBP-KSBP

N46299 :: KSBP-KSBP

FLIGHT INFORMATION

Flight Status: Arrived
Operator: Privately registered:
United States
More flights under this callsign
Pilot: Victor C. (32144)
Aircraft: CESSNA 172 SKYHAWK
(C172)
More flights by this aircraft type
Origin: KSBP San Luis Co Regl
United States
Destination: KSBP San Luis Co Regl
United States
More flights between these airports :: More routes between these airports
Route: +
File this flight plan on PilotEdge
Remarks:
Altitude:
(Current/Filed)
0ft
Speed:
(Current/Filed)
0kts
Departed: 29-Oct-20 11:58 AM
Arrived: 29-Oct-20 12:18 PM
Distance/Time
Traveled:
0nm/0:19
Distance/Time
To Go:
Arrived

Flight Plot

Page will automatically refresh every two minutes.


Map Options




Map Legend


Flown Route
Filed Route
Departure Airport
Arrival Airport
Navaid (VOR, NDB)
Fix

Horizontal Profiles

Position Reports

Time Latitude Longitude Heading Altitude Ground
Speed
29-Oct-20 11:21 35.238762 -120.639060 267 214ft 0kts
29-Oct-20 11:22 35.238762 -120.639060 267 214ft 0kts
29-Oct-20 11:23 35.238762 -120.639060 267 214ft 0kts
29-Oct-20 11:24 35.238762 -120.639060 267 214ft 0kts
29-Oct-20 11:25 35.238762 -120.639060 267 214ft 0kts
29-Oct-20 11:26 35.238762 -120.639060 267 214ft 0kts
29-Oct-20 11:27 35.238762 -120.639060 267 214ft 0kts
29-Oct-20 11:28 35.238762 -120.639060 267 214ft 0kts
29-Oct-20 11:29 35.238762 -120.639060 267 214ft 0kts
29-Oct-20 11:30 35.238762 -120.639060 267 214ft 0kts
29-Oct-20 11:31 35.238762 -120.639060 267 214ft 0kts
29-Oct-20 11:32 35.238762 -120.639060 267 214ft 0kts
29-Oct-20 11:33 35.238762 -120.639060 267 214ft 0kts
29-Oct-20 11:34 35.238762 -120.639060 267 214ft 0kts
29-Oct-20 11:35 35.238762 -120.639060 267 214ft 0kts
29-Oct-20 11:36 35.238762 -120.639060 267 214ft 0kts
29-Oct-20 11:37 35.238762 -120.639060 267 214ft 0kts
29-Oct-20 11:38 35.238762 -120.639060 267 214ft 0kts
29-Oct-20 11:39 35.238762 -120.639060 267 214ft 0kts
29-Oct-20 11:40 35.238762 -120.639060 267 214ft 0kts
29-Oct-20 11:41 35.238762 -120.639060 267 214ft 0kts
29-Oct-20 11:42 35.238762 -120.639060 267 214ft 0kts
29-Oct-20 11:43 35.238762 -120.639060 267 214ft 0kts
29-Oct-20 11:44 35.238762 -120.639060 267 214ft 0kts
29-Oct-20 11:45 35.238762 -120.639060 267 214ft 0kts
29-Oct-20 11:46 35.238762 -120.639060 267 214ft 0kts
29-Oct-20 11:47 35.238762 -120.639060 267 214ft 0kts
29-Oct-20 11:48 35.238762 -120.639060 267 214ft 0kts
29-Oct-20 11:49 35.238762 -120.639060 267 214ft 0kts
29-Oct-20 11:50 35.238762 -120.639060 267 214ft 0kts
29-Oct-20 11:52 35.237509 -120.637810 114 214ft 16kts
29-Oct-20 11:53 35.234985 -120.634727 123 214ft 22kts
29-Oct-20 11:54 35.233239 -120.632280 214 214ft 0kts
29-Oct-20 11:55 35.233239 -120.632280 214 214ft 0kts
29-Oct-20 11:56 35.233239 -120.632280 214 214ft 0kts
29-Oct-20 11:57 35.232815 -120.632774 267 214ft 10kts
29-Oct-20 11:58 35.243835 -120.652279 306 627ft 93kts
29-Oct-20 11:59 35.238175 -120.677049 206 1138ft 97kts
29-Oct-20 12:00 35.220912 -120.656681 124 1177ft 85kts
29-Oct-20 12:01 35.207054 -120.636823 123 861ft 70kts
29-Oct-20 12:02 35.219615 -120.621347 31 636ft 69kts
29-Oct-20 12:03 35.232434 -120.632265 304 294ft 69kts
29-Oct-20 12:04 35.242559 -120.649929 304 348ft 90kts
29-Oct-20 12:05 35.243800 -120.677237 213 1062ft 100kts
29-Oct-20 12:06 35.225728 -120.666364 123 1057ft 83kts
29-Oct-20 12:07 35.212790 -120.645389 126 927ft 80kts
29-Oct-20 12:08 35.208906 -120.623555 29 851ft 75kts
29-Oct-20 12:08 35.223926 -120.618501 314 648ft 75kts
29-Oct-20 12:10 35.238244 -120.642445 303 214ft 56kts
29-Oct-20 12:10 35.248845 -120.661011 286 800ft 90kts
29-Oct-20 12:12 35.227575 -120.669581 123 1227ft 101kts
29-Oct-20 12:12 35.216700 -120.650065 121 1061ft 72kts
29-Oct-20 12:13 35.206107 -120.629756 121 945ft 72kts
29-Oct-20 12:14 35.206894 -120.612713 20 885ft 70kts
29-Oct-20 12:15 35.223334 -120.616719 306 649ft 75kts
29-Oct-20 12:16 35.235770 -120.638101 305 217ft 66kts
29-Oct-20 12:17 35.239967 -120.643747 67 214ft 0kts
29-Oct-20 12:18 35.238014 -120.640242 123 214ft 20kts
29-Oct-20 12:19 35.238097 -120.637660 266 214ft 2kts
29-Oct-20 12:20 35.238096 -120.637696 267 214ft 0kts
29-Oct-20 12:21 35.238096 -120.637696 267 214ft 0kts

Navigation Log

Ident Type
Flight plan parsing failed, navigation log unavailable